sensor_id;sensor_type;location;lat;lon;timestamp;pressure;altitude;pressure_sealevel;temperature;humidity
46886;BME280;32622;48.202;11.326;2022-11-15T00:00:18;1019.08;;;6.43;33.77
46886;BME280;32622;48.202;11.326;2022-11-15T00:02:20;1019.03;;;6.59;33.83
46886;BME280;32622;48.202;11.326;2022-11-15T00:04:23;1019.10;;;6.07;34.21
46886;BME280;32622;48.202;11.326;2022-11-15T00:06:26;1018.97;;;6.36;33.98
46886;BME280;32622;48.202;11.326;2022-11-15T00:08:30;1018.98;;;6.29;33.92
46886;BME280;32622;48.202;11.326;2022-11-15T00:10:32;1018.96;;;6.16;33.83
46886;BME280;32622;48.202;11.326;2022-11-15T00:12:35;1018.93;;;6.33;33.66
46886;BME280;32622;48.202;11.326;2022-11-15T00:14:38;1018.92;;;6.39;33.63
46886;BME280;32622;48.202;11.326;2022-11-15T00:16:40;1019.00;;;6.05;33.51
46886;BME280;32622;48.202;11.326;2022-11-15T00:18:43;1019.09;;;5.73;33.65
46886;BME280;32622;48.202;11.326;2022-11-15T00:20:46;1018.96;;;6.30;33.57
46886;BME280;32622;48.202;11.326;2022-11-15T00:22:49;1018.92;;;6.35;33.69
46886;BME280;32622;48.202;11.326;2022-11-15T00:24:51;1019.07;;;5.74;33.69
46886;BME280;32622;48.202;11.326;2022-11-15T00:26:54;1018.92;;;6.26;33.48
46886;BME280;32622;48.202;11.326;2022-11-15T00:28:57;1018.97;;;6.01;33.44
46886;BME280;32622;48.202;11.326;2022-11-15T00:31:01;1019.00;;;5.87;33.55
46886;BME280;32622;48.202;11.326;2022-11-15T00:33:05;1019.04;;;5.74;33.78
46886;BME280;32622;48.202;11.326;2022-11-15T00:35:08;1019.05;;;5.60;33.82
46886;BME280;32622;48.202;11.326;2022-11-15T00:37:11;1018.95;;;6.07;33.49
46886;BME280;32622;48.202;11.326;2022-11-15T00:39:13;1019.05;;;5.43;34.12
46886;BME280;32622;48.202;11.326;2022-11-15T00:41:16;1019.06;;;5.39;34.34
46886;BME280;32622;48.202;11.326;2022-11-15T00:43:19;1019.20;;;4.80;34.82
46886;BME280;32622;48.202;11.326;2022-11-15T00:45:22;1019.10;;;4.96;35.82
46886;BME280;32622;48.202;11.326;2022-11-15T00:47:25;1019.13;;;4.61;35.94
46886;BME280;32622;48.202;11.326;2022-11-15T00:49:28;1019.25;;;4.09;36.98
46886;BME280;32622;48.202;11.326;2022-11-15T00:51:30;1019.07;;;4.46;36.29
46886;BME280;32622;48.202;11.326;2022-11-15T00:53:33;1019.31;;;3.49;37.85
46886;BME280;32622;48.202;11.326;2022-11-15T00:55:36;1018.98;;;4.71;36.59
46886;BME280;32622;48.202;11.326;2022-11-15T00:57:39;1018.87;;;5.23;35.99
46886;BME280;32622;48.202;11.326;2022-11-15T00:59:42;1018.71;;;5.71;35.36
46886;BME280;32622;48.202;11.326;2022-11-15T01:01:44;1018.78;;;5.46;35.06
46886;BME280;32622;48.202;11.326;2022-11-15T01:03:47;1018.87;;;5.03;34.88
46886;BME280;32622;48.202;11.326;2022-11-15T01:05:50;1018.97;;;4.77;35.76
46886;BME280;32622;48.202;11.326;2022-11-15T01:07:53;1019.08;;;4.33;36.06
46886;BME280;32622;48.202;11.326;2022-11-15T01:09:56;1019.00;;;4.80;35.50
46886;BME280;32622;48.202;11.326;2022-11-15T01:11:58;1018.88;;;5.42;35.30
46886;BME280;32622;48.202;11.326;2022-11-15T01:14:01;1018.84;;;5.47;34.87
46886;BME280;32622;48.202;11.326;2022-11-15T01:16:09;1018.88;;;5.41;34.83
46886;BME280;32622;48.202;11.326;2022-11-15T01:18:12;1018.80;;;5.63;34.68
46886;BME280;32622;48.202;11.326;2022-11-15T01:20:14;1018.87;;;5.19;34.54
46886;BME280;32622;48.202;11.326;2022-11-15T01:22:17;1018.88;;;5.30;34.38
46886;BME280;32622;48.202;11.326;2022-11-15T01:24:20;1018.69;;;5.95;34.42
46886;BME280;32622;48.202;11.326;2022-11-15T01:26:23;1018.81;;;5.32;34.30
46886;BME280;32622;48.202;11.326;2022-11-15T01:28:30;1018.80;;;5.27;34.16
46886;BME280;32622;48.202;11.326;2022-11-15T01:30:33;1018.69;;;5.54;34.02
46886;BME280;32622;48.202;11.326;2022-11-15T01:32:35;1018.67;;;5.62;33.97
46886;BME280;32622;48.202;11.326;2022-11-15T01:34:38;1018.74;;;5.09;33.98
46886;BME280;32622;48.202;11.326;2022-11-15T01:36:41;1018.59;;;5.54;33.87
46886;BME280;32622;48.202;11.326;2022-11-15T01:38:44;1018.56;;;5.50;33.65
46886;BME280;32622;48.202;11.326;2022-11-15T01:40:47;1018.55;;;5.36;33.57
46886;BME280;32622;48.202;11.326;2022-11-15T01:42:51;1018.51;;;5.30;33.79
46886;BME280;32622;48.202;11.326;2022-11-15T01:44:53;1018.42;;;5.56;33.51
46886;BME280;32622;48.202;11.326;2022-11-15T01:46:57;1018.43;;;5.41;33.74
46886;BME280;32622;48.202;11.326;2022-11-15T01:49:03;1018.51;;;4.93;33.87
46886;BME280;32622;48.202;11.326;2022-11-15T01:51:10;1018.43;;;5.06;33.80
46886;BME280;32622;48.202;11.326;2022-11-15T01:53:14;1018.33;;;5.45;33.78
46886;BME280;32622;48.202;11.326;2022-11-15T01:55:20;1018.37;;;5.19;33.69
46886;BME280;32622;48.202;11.326;2022-11-15T01:57:23;1018.41;;;4.98;33.59
46886;BME280;32622;48.202;11.326;2022-11-15T01:59:26;1018.38;;;4.92;33.78
46886;BME280;32622;48.202;11.326;2022-11-15T02:01:31;1018.41;;;4.91;33.94
46886;BME280;32622;48.202;11.326;2022-11-15T02:03:39;1018.43;;;4.77;33.71
46886;BME280;32622;48.202;11.326;2022-11-15T02:05:44;1018.40;;;4.74;33.85
46886;BME280;32622;48.202;11.326;2022-11-15T02:07:47;1018.36;;;5.05;33.78
46886;BME280;32622;48.202;11.326;2022-11-15T02:09:51;1018.52;;;4.29;34.50
46886;BME280;32622;48.202;11.326;2022-11-15T02:11:54;1018.79;;;3.16;35.31
46886;BME280;32622;48.202;11.326;2022-11-15T02:13:59;1018.84;;;2.69;37.70
46886;BME280;32622;48.202;11.326;2022-11-15T02:16:09;1019.38;;;0.54;42.26
46886;BME280;32622;48.202;11.326;2022-11-15T02:18:20;1019.63;;;-0.90;43.93
46886;BME280;32622;48.202;11.326;2022-11-15T02:20:37;1018.89;;;2.36;40.29
46886;BME280;32622;48.202;11.326;2022-11-15T02:22:55;1018.80;;;3.04;39.19
46886;BME280;32622;48.202;11.326;2022-11-15T02:25:16;1018.74;;;3.29;37.92
46886;BME280;32622;48.202;11.326;2022-11-15T02:27:56;1018.55;;;3.93;36.84
46886;BME280;32622;48.202;11.326;2022-11-15T02:30:24;1018.46;;;3.96;36.70
46886;BME280;32622;48.202;11.326;2022-11-15T02:32:35;1018.43;;;3.99;36.71
46886;BME280;32622;48.202;11.326;2022-11-15T02:34:49;1018.67;;;2.84;37.58
46886;BME280;32622;48.202;11.326;2022-11-15T02:37:03;1018.60;;;3.15;36.87
46886;BME280;32622;48.202;11.326;2022-11-15T02:39:15;1018.37;;;3.84;36.31
46886;BME280;32622;48.202;11.326;2022-11-15T02:41:25;1018.28;;;4.21;36.14
46886;BME280;32622;48.202;11.326;2022-11-15T02:43:38;1018.50;;;3.29;36.15
46886;BME280;32622;48.202;11.326;2022-11-15T02:45:47;1018.27;;;4.03;35.65
46886;BME280;32622;48.202;11.326;2022-11-15T02:47:55;1018.25;;;4.05;35.54
46886;BME280;32622;48.202;11.326;2022-11-15T02:50:03;1018.24;;;3.94;35.36
46886;BME280;32622;48.202;11.326;2022-11-15T02:52:13;1018.21;;;3.96;35.44
46886;BME280;32622;48.202;11.326;2022-11-15T02:54:21;1018.06;;;4.32;35.11
46886;BME280;32622;48.202;11.326;2022-11-15T02:56:24;1018.05;;;4.15;35.25
46886;BME280;32622;48.202;11.326;2022-11-15T02:58:41;1017.93;;;4.65;35.00
46886;BME280;32622;48.202;11.326;2022-11-15T03:00:54;1018.06;;;4.19;34.74
46886;BME280;32622;48.202;11.326;2022-11-15T03:03:16;1017.97;;;4.61;34.80
46886;BME280;32622;48.202;11.326;2022-11-15T03:05:28;1018.09;;;4.12;34.57
46886;BME280;32622;48.202;11.326;2022-11-15T03:07:40;1017.98;;;4.48;34.52
46886;BME280;32622;48.202;11.326;2022-11-15T03:09:51;1017.93;;;4.68;34.42
46886;BME280;32622;48.202;11.326;2022-11-15T03:12:01;1017.88;;;4.74;34.21
46886;BME280;32622;48.202;11.326;2022-11-15T03:14:14;1017.90;;;4.55;33.95
46886;BME280;32622;48.202;11.326;2022-11-15T03:16:26;1017.93;;;4.59;33.83
46886;BME280;32622;48.202;11.326;2022-11-15T03:18:32;1017.95;;;4.46;33.81
46886;BME280;32622;48.202;11.326;2022-11-15T03:20:36;1018.01;;;4.33;33.92
46886;BME280;32622;48.202;11.326;2022-11-15T03:22:42;1018.03;;;4.06;34.52
46886;BME280;32622;48.202;11.326;2022-11-15T03:24:50;1017.94;;;4.27;34.96
46886;BME280;32622;48.202;11.326;2022-11-15T03:26:55;1017.85;;;4.33;34.54
46886;BME280;32622;48.202;11.326;2022-11-15T03:29:03;1017.80;;;4.37;34.40
46886;BME280;32622;48.202;11.326;2022-11-15T03:31:09;1017.76;;;4.39;34.34
46886;BME280;32622;48.202;11.326;2022-11-15T03:33:13;1017.75;;;4.40;34.08
46886;BME280;32622;48.202;11.326;2022-11-15T03:35:19;1017.76;;;4.21;34.15
46886;BME280;32622;48.202;11.326;2022-11-15T03:37:27;1017.87;;;3.70;34.52
46886;BME280;32622;48.202;11.326;2022-11-15T03:39:33;1018.11;;;2.56;36.22
46886;BME280;32622;48.202;11.326;2022-11-15T03:41:39;1017.76;;;3.83;35.17
46886;BME280;32622;48.202;11.326;2022-11-15T03:43:50;1017.64;;;4.09;34.77
46886;BME280;32622;48.202;11.326;2022-11-15T03:46:00;1017.64;;;4.24;34.66
46886;BME280;32622;48.202;11.326;2022-11-15T03:48:09;1017.80;;;3.86;34.36
46886;BME280;32622;48.202;11.326;2022-11-15T03:50:16;1017.73;;;4.03;34.28
46886;BME280;32622;48.202;11.326;2022-11-15T03:52:21;1017.63;;;4.45;33.94
46886;BME280;32622;48.202;11.326;2022-11-15T03:54:24;1017.60;;;4.63;33.74
46886;BME280;32622;48.202;11.326;2022-11-15T03:56:27;1017.62;;;4.20;33.93
46886;BME280;32622;48.202;11.326;2022-11-15T03:58:30;1017.49;;;4.55;33.96
46886;BME280;32622;48.202;11.326;2022-11-15T04:00:32;1017.45;;;4.73;33.78
46886;BME280;32622;48.202;11.326;2022-11-15T04:02:35;1017.38;;;5.00;33.51
46886;BME280;32622;48.202;11.326;2022-11-15T04:04:38;1017.60;;;4.11;33.39
46886;BME280;32622;48.202;11.326;2022-11-15T04:06:41;1017.50;;;4.51;33.45
46886;BME280;32622;48.202;11.326;2022-11-15T04:08:44;1017.51;;;4.61;33.33
46886;BME280;32622;48.202;11.326;2022-11-15T04:10:49;1017.55;;;4.41;33.52
46886;BME280;32622;48.202;11.326;2022-11-15T04:12:51;1017.43;;;4.80;33.64
46886;BME280;32622;48.202;11.326;2022-11-15T04:14:54;1017.55;;;4.27;33.50
46886;BME280;32622;48.202;11.326;2022-11-15T04:16:57;1017.54;;;4.25;33.77
46886;BME280;32622;48.202;11.326;2022-11-15T04:18:59;1017.55;;;4.19;33.99
46886;BME280;32622;48.202;11.326;2022-11-15T04:21:02;1017.44;;;4.55;33.65
46886;BME280;32622;48.202;11.326;2022-11-15T04:23:09;1017.50;;;4.29;33.49
46886;BME280;32622;48.202;11.326;2022-11-15T04:25:12;1017.56;;;3.95;33.73
46886;BME280;32622;48.202;11.326;2022-11-15T04:27:15;1017.53;;;4.09;33.79
46886;BME280;32622;48.202;11.326;2022-11-15T04:29:17;1017.43;;;4.50;33.42
46886;BME280;32622;48.202;11.326;2022-11-15T04:31:20;1017.49;;;4.25;33.08
46886;BME280;32622;48.202;11.326;2022-11-15T04:33:23;1017.31;;;4.90;32.90
46886;BME280;32622;48.202;11.326;2022-11-15T04:35:26;1017.47;;;3.98;33.27
46886;BME280;32622;48.202;11.326;2022-11-15T04:37:29;1017.39;;;4.12;33.33
46886;BME280;32622;48.202;11.326;2022-11-15T04:39:32;1017.34;;;4.24;33.54
46886;BME280;32622;48.202;11.326;2022-11-15T04:41:34;1017.38;;;4.04;33.43
46886;BME280;32622;48.202;11.326;2022-11-15T04:43:37;1017.42;;;3.86;33.43
46886;BME280;32622;48.202;11.326;2022-11-15T04:45:40;1017.43;;;3.96;33.52
46886;BME280;32622;48.202;11.326;2022-11-15T04:47:44;1017.36;;;4.18;33.48
46886;BME280;32622;48.202;11.326;2022-11-15T04:49:47;1017.43;;;3.88;33.31
46886;BME280;32622;48.202;11.326;2022-11-15T04:51:49;1017.42;;;3.84;33.02
46886;BME280;32622;48.202;11.326;2022-11-15T04:53:52;1017.31;;;4.20;33.29
46886;BME280;32622;48.202;11.326;2022-11-15T04:55:55;1017.33;;;3.99;33.52
46886;BME280;32622;48.202;11.326;2022-11-15T04:57:58;1017.24;;;4.40;33.31
46886;BME280;32622;48.202;11.326;2022-11-15T05:00:04;1017.28;;;4.30;33.14
46886;BME280;32622;48.202;11.326;2022-11-15T05:02:07;1017.21;;;4.56;33.12
46886;BME280;32622;48.202;11.326;2022-11-15T05:04:10;1017.32;;;3.93;33.17
46886;BME280;32622;48.202;11.326;2022-11-15T05:06:13;1017.31;;;4.00;33.25
46886;BME280;32622;48.202;11.326;2022-11-15T05:08:15;1017.28;;;4.15;33.40
46886;BME280;32622;48.202;11.326;2022-11-15T05:10:18;1017.28;;;4.03;33.31
46886;BME280;32622;48.202;11.326;2022-11-15T05:12:21;1017.27;;;4.00;33.46
46886;BME280;32622;48.202;11.326;2022-11-15T05:14:23;1017.24;;;4.05;33.52
46886;BME280;32622;48.202;11.326;2022-11-15T05:16:26;1017.11;;;4.52;33.35
46886;BME280;32622;48.202;11.326;2022-11-15T05:18:29;1017.23;;;3.82;33.01
46886;BME280;32622;48.202;11.326;2022-11-15T05:20:32;1017.16;;;4.01;33.53
46886;BME280;32622;48.202;11.326;2022-11-15T05:22:35;1017.24;;;3.36;33.64
46886;BME280;32622;48.202;11.326;2022-11-15T05:24:37;1017.11;;;3.79;33.65
46886;BME280;32622;48.202;11.326;2022-11-15T05:26:40;1017.09;;;3.89;33.21
46886;BME280;32622;48.202;11.326;2022-11-15T05:28:43;1017.12;;;3.72;33.19
46886;BME280;32622;48.202;11.326;2022-11-15T05:30:46;1017.13;;;3.58;33.15
46886;BME280;32622;48.202;11.326;2022-11-15T05:32:49;1017.03;;;3.79;33.06
46886;BME280;32622;48.202;11.326;2022-11-15T05:34:52;1016.88;;;4.27;33.04
46886;BME280;32622;48.202;11.326;2022-11-15T05:36:55;1016.90;;;4.22;32.86
46886;BME280;32622;48.202;11.326;2022-11-15T05:38:58;1017.00;;;3.67;33.08
46886;BME280;32622;48.202;11.326;2022-11-15T05:41:02;1016.92;;;3.96;33.17
46886;BME280;32622;48.202;11.326;2022-11-15T05:43:05;1017.01;;;3.64;33.05
46886;BME280;32622;48.202;11.326;2022-11-15T05:45:25;1016.95;;;3.85;33.17
46886;BME280;32622;48.202;11.326;2022-11-15T05:47:29;1017.03;;;3.45;33.22
46886;BME280;32622;48.202;11.326;2022-11-15T05:49:35;1016.89;;;4.03;33.22
46886;BME280;32622;48.202;11.326;2022-11-15T05:51:39;1016.89;;;4.06;32.93
46886;BME280;32622;48.202;11.326;2022-11-15T05:53:44;1016.89;;;4.13;32.77
46886;BME280;32622;48.202;11.326;2022-11-15T05:55:48;1017.07;;;3.26;33.14
46886;BME280;32622;48.202;11.326;2022-11-15T05:57:51;1016.94;;;3.79;33.38
46886;BME280;32622;48.202;11.326;2022-11-15T05:59:54;1016.89;;;3.76;33.14
46886;BME280;32622;48.202;11.326;2022-11-15T06:01:57;1016.93;;;3.53;33.02
46886;BME280;32622;48.202;11.326;2022-11-15T06:03:59;1016.77;;;4.07;32.84
46886;BME280;32622;48.202;11.326;2022-11-15T06:06:02;1016.77;;;3.81;33.41
46886;BME280;32622;48.202;11.326;2022-11-15T06:08:05;1016.90;;;3.10;33.61
46886;BME280;32622;48.202;11.326;2022-11-15T06:10:30;1016.35;;;5.39;33.11
46886;BME280;32622;48.202;11.326;2022-11-15T06:12:33;1016.63;;;4.27;32.85
46886;BME280;32622;48.202;11.326;2022-11-15T06:14:35;1016.64;;;4.18;32.55
46886;BME280;32622;48.202;11.326;2022-11-15T06:16:38;1016.78;;;3.52;32.86
46886;BME280;32622;48.202;11.326;2022-11-15T06:18:41;1016.65;;;3.94;32.89
46886;BME280;32622;48.202;11.326;2022-11-15T06:20:58;1016.66;;;3.96;32.89
46886;BME280;32622;48.202;11.326;2022-11-15T06:23:36;1016.72;;;3.93;32.71
46886;BME280;32622;48.202;11.326;2022-11-15T06:25:39;1016.77;;;3.64;33.00
46886;BME280;32622;48.202;11.326;2022-11-15T06:27:42;1016.76;;;3.69;32.83
46886;BME280;32622;48.202;11.326;2022-11-15T06:29:45;1016.89;;;3.16;33.06
46886;BME280;32622;48.202;11.326;2022-11-15T06:31:48;1016.80;;;3.62;33.14
46886;BME280;32622;48.202;11.326;2022-11-15T06:33:50;1016.92;;;3.25;33.24
46886;BME280;32622;48.202;11.326;2022-11-15T06:35:53;1016.85;;;3.60;33.09
46886;BME280;32622;48.202;11.326;2022-11-15T06:38:01;1016.87;;;3.67;32.87
46886;BME280;32622;48.202;11.326;2022-11-15T06:40:06;1016.84;;;3.97;32.92
46886;BME280;32622;48.202;11.326;2022-11-15T06:42:09;1016.93;;;3.58;32.97
46886;BME280;32622;48.202;11.326;2022-11-15T06:44:12;1016.82;;;3.99;32.92
46886;BME280;32622;48.202;11.326;2022-11-15T06:46:15;1016.88;;;3.78;33.18
46886;BME280;32622;48.202;11.326;2022-11-15T06:48:18;1016.98;;;3.40;32.96
46886;BME280;32622;48.202;11.326;2022-11-15T06:50:21;1016.96;;;3.65;32.79
46886;BME280;32622;48.202;11.326;2022-11-15T06:52:23;1016.85;;;4.01;32.73
46886;BME280;32622;48.202;11.326;2022-11-15T06:54:26;1016.87;;;3.88;32.90
46886;BME280;32622;48.202;11.326;2022-11-15T06:56:29;1017.00;;;3.40;33.12
46886;BME280;32622;48.202;11.326;2022-11-15T06:58:32;1017.00;;;3.70;33.00
46886;BME280;32622;48.202;11.326;2022-11-15T07:00:35;1017.07;;;3.71;33.02
46886;BME280;32622;48.202;11.326;2022-11-15T07:02:39;1017.08;;;4.09;32.90
46886;BME280;32622;48.202;11.326;2022-11-15T07:04:41;1017.06;;;4.25;32.78
46886;BME280;32622;48.202;11.326;2022-11-15T07:26:31;1016.81;;;4.54;37.10
46886;BME280;32622;48.202;11.326;2022-11-15T07:28:34;1017.32;;;2.37;38.20
46886;BME280;32622;48.202;11.326;2022-11-15T07:30:37;1017.12;;;3.30;36.82
46886;BME280;32622;48.202;11.326;2022-11-15T07:32:40;1017.13;;;3.17;35.95
46886;BME280;32622;48.202;11.326;2022-11-15T07:34:43;1016.95;;;3.57;35.82
46886;BME280;32622;48.202;11.326;2022-11-15T07:36:45;1016.96;;;3.14;36.13
46886;BME280;32622;48.202;11.326;2022-11-15T07:38:50;1016.99;;;2.89;37.33
46886;BME280;32622;48.202;11.326;2022-11-15T07:40:56;1016.97;;;2.99;37.75
46886;BME280;32622;48.202;11.326;2022-11-15T07:43:00;1017.21;;;2.01;38.38
46886;BME280;32622;48.202;11.326;2022-11-15T07:45:04;1017.32;;;1.59;38.78
46886;BME280;32622;48.202;11.326;2022-11-15T07:47:07;1017.21;;;2.16;38.62
46886;BME280;32622;48.202;11.326;2022-11-15T07:49:10;1017.89;;;-0.46;41.32
46886;BME280;32622;48.202;11.326;2022-11-15T07:51:14;1017.16;;;2.15;38.57
46886;BME280;32622;48.202;11.326;2022-11-15T07:53:16;1017.08;;;2.54;37.64
46886;BME280;32622;48.202;11.326;2022-11-15T07:55:19;1016.94;;;3.21;37.02
46886;BME280;32622;48.202;11.326;2022-11-15T07:57:22;1016.89;;;3.36;36.42
46886;BME280;32622;48.202;11.326;2022-11-15T07:59:25;1016.82;;;3.55;35.96
46886;BME280;32622;48.202;11.326;2022-11-15T08:01:27;1016.67;;;4.29;35.84
46886;BME280;32622;48.202;11.326;2022-11-15T08:04:10;1016.21;;;5.98;35.43
46886;BME280;32622;48.202;11.326;2022-11-15T08:06:13;1016.63;;;3.88;35.79
46886;BME280;32622;48.202;11.326;2022-11-15T08:08:16;1016.54;;;4.10;35.42
46886;BME280;32622;48.202;11.326;2022-11-15T08:10:19;1016.45;;;4.30;35.12
46886;BME280;32622;48.202;11.326;2022-11-15T08:12:31;1016.43;;;4.46;34.98
46886;BME280;32622;48.202;11.326;2022-11-15T08:14:35;1016.40;;;4.76;34.83
46886;BME280;32622;48.202;11.326;2022-11-15T08:16:38;1016.33;;;5.01;34.66
46886;BME280;32622;48.202;11.326;2022-11-15T08:18:41;1016.39;;;4.80;34.55
46886;BME280;32622;48.202;11.326;2022-11-15T08:20:44;1016.30;;;5.07;34.31
46886;BME280;32622;48.202;11.326;2022-11-15T08:22:47;1016.25;;;5.15;34.31
46886;BME280;32622;48.202;11.326;2022-11-15T08:24:50;1016.17;;;5.36;34.29
46886;BME280;32622;48.202;11.326;2022-11-15T09:05:22;1015.57;;;6.49;38.44
46886;BME280;32622;48.202;11.326;2022-11-15T09:07:25;1015.98;;;4.48;38.05
46886;BME280;32622;48.202;11.326;2022-11-15T09:09:27;1015.83;;;4.73;36.61
46886;BME280;32622;48.202;11.326;2022-11-15T09:11:30;1015.67;;;5.09;36.20
46886;BME280;32622;48.202;11.326;2022-11-15T09:13:41;1015.71;;;4.82;36.33
46886;BME280;32622;48.202;11.326;2022-11-15T09:15:48;1015.50;;;5.62;36.14
46886;BME280;32622;48.202;11.326;2022-11-15T09:17:51;1015.66;;;4.82;36.96
46886;BME280;32622;48.202;11.326;2022-11-15T09:19:53;1015.51;;;5.26;35.76
46886;BME280;32622;48.202;11.326;2022-11-15T09:21:56;1015.78;;;4.05;36.83
46886;BME280;32622;48.202;11.326;2022-11-15T09:23:59;1015.86;;;3.59;38.04
46886;BME280;32622;48.202;11.326;2022-11-15T09:26:03;1015.90;;;3.27;39.58
46886;BME280;32622;48.202;11.326;2022-11-15T09:28:09;1015.62;;;4.47;37.62
46886;BME280;32622;48.202;11.326;2022-11-15T09:30:14;1015.62;;;4.58;38.52
46886;BME280;32622;48.202;11.326;2022-11-15T09:32:18;1015.66;;;4.16;38.75
46886;BME280;32622;48.202;11.326;2022-11-15T09:34:21;1015.67;;;4.39;39.54
46886;BME280;32622;48.202;11.326;2022-11-15T09:36:26;1015.86;;;3.45;40.28
46886;BME280;32622;48.202;11.326;2022-11-15T09:38:31;1015.63;;;4.34;39.25
46886;BME280;32622;48.202;11.326;2022-11-15T09:40:36;1015.36;;;5.08;38.30
46886;BME280;32622;48.202;11.326;2022-11-15T09:42:51;1015.31;;;5.11;38.23
46886;BME280;32622;48.202;11.326;2022-11-15T09:45:06;1015.33;;;5.04;38.44
46886;BME280;32622;48.202;11.326;2022-11-15T09:47:38;1015.43;;;4.65;38.85
46886;BME280;32622;48.202;11.326;2022-11-15T09:49:43;1015.33;;;4.91;38.53
46886;BME280;32622;48.202;11.326;2022-11-15T09:51:48;1015.43;;;4.56;39.09
46886;BME280;32622;48.202;11.326;2022-11-15T09:53:59;1015.37;;;4.81;38.36
46886;BME280;32622;48.202;11.326;2022-11-15T09:56:10;1015.12;;;5.59;37.87
46886;BME280;32622;48.202;11.326;2022-11-15T09:58:22;1015.47;;;4.13;38.65
46886;BME280;32622;48.202;11.326;2022-11-15T10:00:33;1015.30;;;4.72;38.72
46886;BME280;32622;48.202;11.326;2022-11-15T10:02:49;1014.94;;;5.93;37.01
46886;BME280;32622;48.202;11.326;2022-11-15T10:04:57;1014.79;;;6.49;35.97
46886;BME280;32622;48.202;11.326;2022-11-15T10:07:04;1014.73;;;6.83;35.63
46886;BME280;32622;48.202;11.326;2022-11-15T10:09:14;1014.63;;;7.10;35.36
46886;BME280;32622;48.202;11.326;2022-11-15T10:11:21;1014.73;;;6.53;35.00
46886;BME280;32622;48.202;11.326;2022-11-15T10:13:28;1014.63;;;6.79;34.78
46886;BME280;32622;48.202;11.326;2022-11-15T10:15:33;1014.46;;;7.26;34.13
46886;BME280;32622;48.202;11.326;2022-11-15T10:17:54;1014.42;;;7.29;32.95
46886;BME280;32622;48.202;11.326;2022-11-15T10:20:11;1014.61;;;6.38;34.04
46886;BME280;32622;48.202;11.326;2022-11-15T10:22:24;1014.63;;;6.02;34.65
46886;BME280;32622;48.202;11.326;2022-11-15T10:24:33;1014.38;;;7.01;33.12
46886;BME280;32622;48.202;11.326;2022-11-15T10:26:37;1014.26;;;7.23;32.96
46886;BME280;32622;48.202;11.326;2022-11-15T10:28:40;1014.11;;;7.80;32.36
46886;BME280;32622;48.202;11.326;2022-11-15T10:30:46;1013.98;;;8.12;32.42
46886;BME280;32622;48.202;11.326;2022-11-15T10:32:50;1014.04;;;7.49;32.56
46886;BME280;32622;48.202;11.326;2022-11-15T10:34:54;1014.24;;;6.62;33.86
46886;BME280;32622;48.202;11.326;2022-11-15T10:36:58;1014.06;;;7.37;33.08
46886;BME280;32622;48.202;11.326;2022-11-15T10:39:03;1014.04;;;7.19;33.71
46886;BME280;32622;48.202;11.326;2022-11-15T10:41:08;1013.88;;;7.77;33.46
46886;BME280;32622;48.202;11.326;2022-11-15T10:43:17;1014.00;;;7.12;33.92
46886;BME280;32622;48.202;11.326;2022-11-15T10:45:27;1014.38;;;5.51;36.62
46886;BME280;32622;48.202;11.326;2022-11-15T10:47:31;1014.15;;;6.50;35.66
46886;BME280;32622;48.202;11.326;2022-11-15T10:49:35;1014.01;;;6.93;34.79
46886;BME280;32622;48.202;11.326;2022-11-15T10:51:42;1013.97;;;6.95;34.92
46886;BME280;32622;48.202;11.326;2022-11-15T10:53:47;1014.01;;;6.75;35.31
46886;BME280;32622;48.202;11.326;2022-11-15T10:55:52;1013.69;;;7.68;34.54
46886;BME280;32622;48.202;11.326;2022-11-15T10:58:05;1013.58;;;8.07;34.07
46886;BME280;32622;48.202;11.326;2022-11-15T11:00:29;1013.74;;;7.21;34.90
46886;BME280;32622;48.202;11.326;2022-11-15T11:02:36;1013.62;;;7.56;34.85
46886;BME280;32622;48.202;11.326;2022-11-15T11:04:50;1013.62;;;7.46;34.07
46886;BME280;32622;48.202;11.326;2022-11-15T11:06:56;1013.64;;;7.05;34.72
46886;BME280;32622;48.202;11.326;2022-11-15T11:09:04;1013.36;;;8.07;33.45
46886;BME280;32622;48.202;11.326;2022-11-15T11:11:08;1013.17;;;8.44;33.44
46886;BME280;32622;48.202;11.326;2022-11-15T11:13:14;1013.29;;;7.83;33.97
46886;BME280;32622;48.202;11.326;2022-11-15T11:15:17;1013.24;;;7.92;34.30
46886;BME280;32622;48.202;11.326;2022-11-15T11:17:26;1013.33;;;7.43;34.98
46886;BME280;32622;48.202;11.326;2022-11-15T11:19:51;1013.42;;;7.05;35.53
46886;BME280;32622;48.202;11.326;2022-11-15T11:22:03;1013.41;;;6.97;36.99
46886;BME280;32622;48.202;11.326;2022-11-15T11:24:13;1013.20;;;7.69;35.54
46886;BME280;32622;48.202;11.326;2022-11-15T11:26:34;1013.06;;;7.98;35.02
46886;BME280;32622;48.202;11.326;2022-11-15T11:28:50;1013.26;;;6.97;36.16
46886;BME280;32622;48.202;11.326;2022-11-15T11:31:05;1012.98;;;7.90;35.21
46886;BME280;32622;48.202;11.326;2022-11-15T11:33:17;1013.06;;;7.51;35.65
46886;BME280;32622;48.202;11.326;2022-11-15T11:35:26;1013.34;;;6.10;37.05
46886;BME280;32622;48.202;11.326;2022-11-15T11:37:37;1013.04;;;7.51;35.69
46886;BME280;32622;48.202;11.326;2022-11-15T11:40:00;1013.05;;;7.43;35.87
46886;BME280;32622;48.202;11.326;2022-11-15T11:42:13;1013.02;;;7.63;36.36
46886;BME280;32622;48.202;11.326;2022-11-15T11:44:35;1012.98;;;7.52;35.88
46886;BME280;32622;48.202;11.326;2022-11-15T11:46:49;1012.97;;;7.23;36.62
46886;BME280;32622;48.202;11.326;2022-11-15T11:48:58;1012.75;;;7.97;35.79
46886;BME280;32622;48.202;11.326;2022-11-15T11:51:13;1012.69;;;7.99;35.50
46886;BME280;32622;48.202;11.326;2022-11-15T11:53:25;1012.64;;;8.14;35.12
46886;BME280;32622;48.202;11.326;2022-11-15T11:55:34;1012.88;;;7.25;35.73
46886;BME280;32622;48.202;11.326;2022-11-15T11:57:44;1013.00;;;6.56;36.06
46886;BME280;32622;48.202;11.326;2022-11-15T11:59:55;1012.75;;;7.46;35.82
46886;BME280;32622;48.202;11.326;2022-11-15T12:02:11;1012.62;;;7.91;36.02
46886;BME280;32622;48.202;11.326;2022-11-15T12:04:20;1012.81;;;7.12;36.49
46886;BME280;32622;48.202;11.326;2022-11-15T12:06:31;1012.87;;;6.80;36.53
46886;BME280;32622;48.202;11.326;2022-11-15T12:08:43;1012.59;;;7.86;35.39
46886;BME280;32622;48.202;11.326;2022-11-15T12:10:52;1012.55;;;8.01;35.48
46886;BME280;32622;48.202;11.326;2022-11-15T12:17:21;1011.93;;;10.86;35.81
46886;BME280;32622;48.202;11.326;2022-11-15T12:19:26;1012.45;;;8.17;35.46